sensor_id;sensor_type;location;lat;lon;timestamp;P1;durP1;ratioP1;P2;durP2;ratioP2
4577;SDS011;2301;47.354;8.528;2023-03-05T00:02:07;29.23;;;17.95;;
4577;SDS011;2301;47.354;8.528;2023-03-05T00:04:34;28.92;;;17.85;;
4577;SDS011;2301;47.354;8.528;2023-03-05T00:07:02;30.02;;;15.85;;
4577;SDS011;2301;47.354;8.528;2023-03-05T00:09:30;32.08;;;18.10;;
4577;SDS011;2301;47.354;8.528;2023-03-05T00:11:56;25.65;;;16.58;;
4577;SDS011;2301;47.354;8.528;2023-03-05T00:14:23;33.10;;;15.40;;
4577;SDS011;2301;47.354;8.528;2023-03-05T00:16:50;37.08;;;16.30;;
4577;SDS011;2301;47.354;8.528;2023-03-05T00:19:17;32.78;;;18.50;;
4577;SDS011;2301;47.354;8.528;2023-03-05T00:21:44;29.60;;;16.98;;
4577;SDS011;2301;47.354;8.528;2023-03-05T00:24:13;25.48;;;16.40;;
4577;SDS011;2301;47.354;8.528;2023-03-05T00:26:42;31.90;;;17.52;;
4577;SDS011;2301;47.354;8.528;2023-03-05T00:29:10;30.52;;;18.10;;
4577;SDS011;2301;47.354;8.528;2023-03-05T00:31:40;32.10;;;17.95;;
4577;SDS011;2301;47.354;8.528;2023-03-05T00:34:09;29.08;;;17.42;;
4577;SDS011;2301;47.354;8.528;2023-03-05T00:36:38;35.17;;;20.13;;
4577;SDS011;2301;47.354;8.528;2023-03-05T00:39:06;26.05;;;16.23;;
4577;SDS011;2301;47.354;8.528;2023-03-05T00:41:34;27.80;;;16.73;;
4577;SDS011;2301;47.354;8.528;2023-03-05T00:44:02;27.50;;;17.50;;
4577;SDS011;2301;47.354;8.528;2023-03-05T00:46:29;27.38;;;17.02;;
4577;SDS011;2301;47.354;8.528;2023-03-05T00:48:56;27.83;;;18.20;;
4577;SDS011;2301;47.354;8.528;2023-03-05T00:51:23;23.75;;;15.98;;
4577;SDS011;2301;47.354;8.528;2023-03-05T00:53:50;24.85;;;15.82;;
4577;SDS011;2301;47.354;8.528;2023-03-05T00:56:18;30.73;;;17.65;;
4577;SDS011;2301;47.354;8.528;2023-03-05T00:58:46;30.02;;;18.58;;
4577;SDS011;2301;47.354;8.528;2023-03-05T01:01:13;28.65;;;16.60;;
4577;SDS011;2301;47.354;8.528;2023-03-05T01:03:40;37.67;;;20.52;;
4577;SDS011;2301;47.354;8.528;2023-03-05T01:06:08;30.35;;;16.80;;
4577;SDS011;2301;47.354;8.528;2023-03-05T01:08:37;25.73;;;15.48;;
4577;SDS011;2301;47.354;8.528;2023-03-05T01:11:04;28.85;;;16.98;;
4577;SDS011;2301;47.354;8.528;2023-03-05T01:13:32;30.50;;;15.43;;
4577;SDS011;2301;47.354;8.528;2023-03-05T01:16:00;28.90;;;17.15;;
4577;SDS011;2301;47.354;8.528;2023-03-05T01:18:28;32.97;;;18.88;;
4577;SDS011;2301;47.354;8.528;2023-03-05T01:20:55;30.33;;;17.70;;
4577;SDS011;2301;47.354;8.528;2023-03-05T01:23:22;29.30;;;16.83;;
4577;SDS011;2301;47.354;8.528;2023-03-05T01:25:51;25.75;;;15.80;;
4577;SDS011;2301;47.354;8.528;2023-03-05T01:28:19;30.83;;;16.50;;
4577;SDS011;2301;47.354;8.528;2023-03-05T01:30:46;26.05;;;16.92;;
4577;SDS011;2301;47.354;8.528;2023-03-05T01:33:15;29.27;;;16.50;;
4577;SDS011;2301;47.354;8.528;2023-03-05T01:35:41;29.75;;;18.17;;
4577;SDS011;2301;47.354;8.528;2023-03-05T01:38:11;29.52;;;18.15;;
4577;SDS011;2301;47.354;8.528;2023-03-05T01:40:38;35.05;;;18.25;;
4577;SDS011;2301;47.354;8.528;2023-03-05T01:43:18;25.25;;;16.00;;
4577;SDS011;2301;47.354;8.528;2023-03-05T01:49:10;34.58;;;18.02;;
4577;SDS011;2301;47.354;8.528;2023-03-05T01:51:47;34.83;;;16.05;;
4577;SDS011;2301;47.354;8.528;2023-03-05T01:54:20;37.00;;;19.60;;
4577;SDS011;2301;47.354;8.528;2023-03-05T01:56:49;28.40;;;18.27;;
4577;SDS011;2301;47.354;8.528;2023-03-05T01:59:19;32.17;;;18.20;;
4577;SDS011;2301;47.354;8.528;2023-03-05T02:01:49;29.65;;;17.00;;
4577;SDS011;2301;47.354;8.528;2023-03-05T02:04:21;28.67;;;16.20;;
4577;SDS011;2301;47.354;8.528;2023-03-05T02:06:52;28.50;;;15.77;;
4577;SDS011;2301;47.354;8.528;2023-03-05T02:09:19;28.83;;;16.85;;
4577;SDS011;2301;47.354;8.528;2023-03-05T02:11:48;29.25;;;16.80;;
4577;SDS011;2301;47.354;8.528;2023-03-05T02:14:15;27.80;;;18.33;;
4577;SDS011;2301;47.354;8.528;2023-03-05T02:16:42;26.45;;;17.10;;
4577;SDS011;2301;47.354;8.528;2023-03-05T02:19:10;29.30;;;17.13;;
4577;SDS011;2301;47.354;8.528;2023-03-05T02:21:40;32.50;;;17.17;;
4577;SDS011;2301;47.354;8.528;2023-03-05T02:24:10;31.17;;;18.83;;
4577;SDS011;2301;47.354;8.528;2023-03-05T02:26:38;29.27;;;17.67;;
4577;SDS011;2301;47.354;8.528;2023-03-05T02:29:07;30.65;;;18.13;;
4577;SDS011;2301;47.354;8.528;2023-03-05T02:31:35;23.37;;;15.50;;
4577;SDS011;2301;47.354;8.528;2023-03-05T02:34:03;32.30;;;17.88;;
4577;SDS011;2301;47.354;8.528;2023-03-05T02:36:30;32.67;;;17.98;;
4577;SDS011;2301;47.354;8.528;2023-03-05T02:38:59;27.55;;;16.13;;
4577;SDS011;2301;47.354;8.528;2023-03-05T02:41:26;27.30;;;15.68;;
4577;SDS011;2301;47.354;8.528;2023-03-05T02:43:53;27.52;;;16.65;;
4577;SDS011;2301;47.354;8.528;2023-03-05T02:46:20;28.08;;;16.83;;
4577;SDS011;2301;47.354;8.528;2023-03-05T02:48:47;24.77;;;15.63;;
4577;SDS011;2301;47.354;8.528;2023-03-05T02:51:14;30.40;;;16.70;;
4577;SDS011;2301;47.354;8.528;2023-03-05T02:53:41;27.67;;;15.07;;
4577;SDS011;2301;47.354;8.528;2023-03-05T02:56:09;30.75;;;16.77;;
4577;SDS011;2301;47.354;8.528;2023-03-05T02:58:36;47.70;;;15.45;;
4577;SDS011;2301;47.354;8.528;2023-03-05T03:01:03;33.13;;;18.15;;
4577;SDS011;2301;47.354;8.528;2023-03-05T03:03:30;26.67;;;16.25;;
4577;SDS011;2301;47.354;8.528;2023-03-05T03:05:57;27.77;;;15.85;;
4577;SDS011;2301;47.354;8.528;2023-03-05T03:08:24;22.63;;;14.93;;
4577;SDS011;2301;47.354;8.528;2023-03-05T03:10:51;29.40;;;17.15;;
4577;SDS011;2301;47.354;8.528;2023-03-05T03:13:21;29.55;;;17.33;;
4577;SDS011;2301;47.354;8.528;2023-03-05T03:15:48;28.83;;;17.55;;
4577;SDS011;2301;47.354;8.528;2023-03-05T03:18:15;27.05;;;16.63;;
4577;SDS011;2301;47.354;8.528;2023-03-05T03:20:42;28.25;;;17.08;;
4577;SDS011;2301;47.354;8.528;2023-03-05T03:23:09;26.90;;;16.13;;
4577;SDS011;2301;47.354;8.528;2023-03-05T03:25:36;29.08;;;16.73;;
4577;SDS011;2301;47.354;8.528;2023-03-05T03:28:03;26.10;;;15.32;;
4577;SDS011;2301;47.354;8.528;2023-03-05T03:30:31;29.30;;;17.65;;
4577;SDS011;2301;47.354;8.528;2023-03-05T03:32:58;24.38;;;15.05;;
4577;SDS011;2301;47.354;8.528;2023-03-05T03:35:25;26.15;;;16.05;;
4577;SDS011;2301;47.354;8.528;2023-03-05T03:37:52;27.60;;;17.15;;
4577;SDS011;2301;47.354;8.528;2023-03-05T03:40:19;35.75;;;17.95;;
4577;SDS011;2301;47.354;8.528;2023-03-05T03:42:46;28.33;;;16.38;;
4577;SDS011;2301;47.354;8.528;2023-03-05T03:45:13;27.55;;;16.00;;
4577;SDS011;2301;47.354;8.528;2023-03-05T03:47:41;31.27;;;16.70;;
4577;SDS011;2301;47.354;8.528;2023-03-05T03:50:08;26.40;;;15.80;;
4577;SDS011;2301;47.354;8.528;2023-03-05T03:52:36;26.55;;;15.43;;
4577;SDS011;2301;47.354;8.528;2023-03-05T03:55:03;32.58;;;17.58;;
4577;SDS011;2301;47.354;8.528;2023-03-05T03:57:31;25.40;;;15.48;;
4577;SDS011;2301;47.354;8.528;2023-03-05T03:59:58;31.63;;;16.88;;
4577;SDS011;2301;47.354;8.528;2023-03-05T04:02:26;25.63;;;15.18;;
4577;SDS011;2301;47.354;8.528;2023-03-05T04:04:54;31.02;;;15.57;;
4577;SDS011;2301;47.354;8.528;2023-03-05T04:07:21;27.42;;;16.00;;
4577;SDS011;2301;47.354;8.528;2023-03-05T04:09:48;26.25;;;14.90;;
4577;SDS011;2301;47.354;8.528;2023-03-05T04:12:15;29.67;;;17.08;;
4577;SDS011;2301;47.354;8.528;2023-03-05T04:14:43;32.72;;;17.02;;
4577;SDS011;2301;47.354;8.528;2023-03-05T04:17:10;29.90;;;17.00;;
4577;SDS011;2301;47.354;8.528;2023-03-05T04:19:38;31.40;;;17.33;;
4577;SDS011;2301;47.354;8.528;2023-03-05T04:22:06;29.83;;;17.05;;
4577;SDS011;2301;47.354;8.528;2023-03-05T04:24:35;26.60;;;15.18;;
4577;SDS011;2301;47.354;8.528;2023-03-05T04:27:02;24.95;;;15.60;;
4577;SDS011;2301;47.354;8.528;2023-03-05T04:29:29;28.00;;;15.88;;
4577;SDS011;2301;47.354;8.528;2023-03-05T04:31:56;52.22;;;15.90;;
4577;SDS011;2301;47.354;8.528;2023-03-05T04:34:24;48.17;;;16.15;;
4577;SDS011;2301;47.354;8.528;2023-03-05T04:36:51;28.00;;;15.85;;
4577;SDS011;2301;47.354;8.528;2023-03-05T04:39:19;29.17;;;16.65;;
4577;SDS011;2301;47.354;8.528;2023-03-05T04:41:46;26.08;;;15.80;;
4577;SDS011;2301;47.354;8.528;2023-03-05T04:44:13;27.88;;;16.17;;
4577;SDS011;2301;47.354;8.528;2023-03-05T04:46:40;31.20;;;16.77;;
4577;SDS011;2301;47.354;8.528;2023-03-05T04:49:06;26.45;;;15.30;;
4577;SDS011;2301;47.354;8.528;2023-03-05T04:51:33;31.13;;;16.75;;
4577;SDS011;2301;47.354;8.528;2023-03-05T04:54:00;33.58;;;17.95;;
4577;SDS011;2301;47.354;8.528;2023-03-05T04:56:28;28.83;;;17.48;;
4577;SDS011;2301;47.354;8.528;2023-03-05T04:58:56;28.08;;;15.32;;
4577;SDS011;2301;47.354;8.528;2023-03-05T05:01:23;35.50;;;21.60;;
4577;SDS011;2301;47.354;8.528;2023-03-05T05:03:50;22.75;;;14.52;;
4577;SDS011;2301;47.354;8.528;2023-03-05T05:06:17;29.05;;;18.27;;
4577;SDS011;2301;47.354;8.528;2023-03-05T05:08:44;29.50;;;17.27;;
4577;SDS011;2301;47.354;8.528;2023-03-05T05:11:12;27.20;;;15.90;;
4577;SDS011;2301;47.354;8.528;2023-03-05T05:13:41;29.80;;;16.38;;
4577;SDS011;2301;47.354;8.528;2023-03-05T05:16:08;27.20;;;16.38;;
4577;SDS011;2301;47.354;8.528;2023-03-05T05:18:35;37.22;;;21.65;;
4577;SDS011;2301;47.354;8.528;2023-03-05T05:21:05;31.95;;;18.25;;
4577;SDS011;2301;47.354;8.528;2023-03-05T05:23:34;27.20;;;15.82;;
4577;SDS011;2301;47.354;8.528;2023-03-05T05:26:02;33.55;;;17.20;;
4577;SDS011;2301;47.354;8.528;2023-03-05T05:28:30;25.90;;;17.38;;
4577;SDS011;2301;47.354;8.528;2023-03-05T05:30:58;30.52;;;16.73;;
4577;SDS011;2301;47.354;8.528;2023-03-05T05:33:26;26.83;;;14.60;;
4577;SDS011;2301;47.354;8.528;2023-03-05T05:35:53;32.88;;;17.63;;
4577;SDS011;2301;47.354;8.528;2023-03-05T05:38:20;33.70;;;17.48;;
4577;SDS011;2301;47.354;8.528;2023-03-05T05:40:47;26.23;;;15.43;;
4577;SDS011;2301;47.354;8.528;2023-03-05T05:43:13;24.13;;;14.43;;
4577;SDS011;2301;47.354;8.528;2023-03-05T05:45:40;29.63;;;17.40;;
4577;SDS011;2301;47.354;8.528;2023-03-05T05:48:09;26.95;;;16.58;;
4577;SDS011;2301;47.354;8.528;2023-03-05T05:50:36;24.38;;;16.00;;
4577;SDS011;2301;47.354;8.528;2023-03-05T05:53:05;25.75;;;15.73;;
4577;SDS011;2301;47.354;8.528;2023-03-05T05:55:32;28.40;;;16.52;;
4577;SDS011;2301;47.354;8.528;2023-03-05T05:57:58;29.15;;;15.57;;
4577;SDS011;2301;47.354;8.528;2023-03-05T06:00:25;36.20;;;17.52;;
4577;SDS011;2301;47.354;8.528;2023-03-05T06:02:52;28.15;;;16.40;;
4577;SDS011;2301;47.354;8.528;2023-03-05T06:05:21;29.05;;;16.20;;
4577;SDS011;2301;47.354;8.528;2023-03-05T06:07:48;27.77;;;16.70;;
4577;SDS011;2301;47.354;8.528;2023-03-05T06:10:15;28.60;;;17.45;;
4577;SDS011;2301;47.354;8.528;2023-03-05T06:12:42;31.27;;;17.40;;
4577;SDS011;2301;47.354;8.528;2023-03-05T06:15:09;27.92;;;16.73;;
4577;SDS011;2301;47.354;8.528;2023-03-05T06:17:36;28.42;;;16.13;;
4577;SDS011;2301;47.354;8.528;2023-03-05T06:20:03;27.90;;;16.08;;
4577;SDS011;2301;47.354;8.528;2023-03-05T06:22:32;29.48;;;16.42;;
4577;SDS011;2301;47.354;8.528;2023-03-05T06:25:03;25.02;;;14.65;;
4577;SDS011;2301;47.354;8.528;2023-03-05T06:27:30;32.75;;;16.35;;
4577;SDS011;2301;47.354;8.528;2023-03-05T06:29:57;26.85;;;15.70;;
4577;SDS011;2301;47.354;8.528;2023-03-05T06:32:24;33.38;;;17.30;;
4577;SDS011;2301;47.354;8.528;2023-03-05T06:34:51;31.88;;;16.30;;
4577;SDS011;2301;47.354;8.528;2023-03-05T06:37:18;27.52;;;16.42;;
4577;SDS011;2301;47.354;8.528;2023-03-05T06:39:47;25.80;;;16.52;;
4577;SDS011;2301;47.354;8.528;2023-03-05T06:42:13;29.58;;;16.60;;
4577;SDS011;2301;47.354;8.528;2023-03-05T06:44:42;25.95;;;15.05;;
4577;SDS011;2301;47.354;8.528;2023-03-05T06:47:09;27.67;;;16.02;;
4577;SDS011;2301;47.354;8.528;2023-03-05T06:49:36;28.73;;;16.30;;
4577;SDS011;2301;47.354;8.528;2023-03-05T06:52:04;30.52;;;18.52;;
4577;SDS011;2301;47.354;8.528;2023-03-05T06:54:34;24.50;;;14.80;;
4577;SDS011;2301;47.354;8.528;2023-03-05T06:57:02;34.53;;;19.05;;
4577;SDS011;2301;47.354;8.528;2023-03-05T06:59:29;25.38;;;16.38;;
4577;SDS011;2301;47.354;8.528;2023-03-05T07:01:56;31.27;;;17.17;;
4577;SDS011;2301;47.354;8.528;2023-03-05T07:04:23;26.77;;;16.35;;
4577;SDS011;2301;47.354;8.528;2023-03-05T07:06:50;28.25;;;16.70;;
4577;SDS011;2301;47.354;8.528;2023-03-05T07:09:17;31.92;;;18.27;;
4577;SDS011;2301;47.354;8.528;2023-03-05T07:11:44;30.65;;;17.08;;
4577;SDS011;2301;47.354;8.528;2023-03-05T07:14:13;30.40;;;16.25;;
4577;SDS011;2301;47.354;8.528;2023-03-05T07:16:40;29.83;;;15.80;;
4577;SDS011;2301;47.354;8.528;2023-03-05T07:19:07;32.35;;;18.10;;
4577;SDS011;2301;47.354;8.528;2023-03-05T07:21:35;28.50;;;15.48;;
4577;SDS011;2301;47.354;8.528;2023-03-05T07:24:02;28.48;;;17.42;;
4577;SDS011;2301;47.354;8.528;2023-03-05T07:26:30;58.63;;;33.40;;
4577;SDS011;2301;47.354;8.528;2023-03-05T07:28:58;56.63;;;33.03;;
4577;SDS011;2301;47.354;8.528;2023-03-05T07:31:27;61.25;;;33.47;;
4577;SDS011;2301;47.354;8.528;2023-03-05T07:33:56;62.03;;;34.42;;
4577;SDS011;2301;47.354;8.528;2023-03-05T07:36:24;64.13;;;34.60;;
4577;SDS011;2301;47.354;8.528;2023-03-05T07:38:51;66.30;;;35.25;;
4577;SDS011;2301;47.354;8.528;2023-03-05T07:41:18;60.35;;;33.92;;
4577;SDS011;2301;47.354;8.528;2023-03-05T07:43:47;63.63;;;33.97;;
4577;SDS011;2301;47.354;8.528;2023-03-05T07:46:17;63.25;;;35.45;;
4577;SDS011;2301;47.354;8.528;2023-03-05T07:48:46;66.47;;;35.40;;
4577;SDS011;2301;47.354;8.528;2023-03-05T07:51:14;69.40;;;35.22;;
4577;SDS011;2301;47.354;8.528;2023-03-05T07:53:43;67.25;;;33.80;;
4577;SDS011;2301;47.354;8.528;2023-03-05T07:56:10;63.03;;;34.95;;
4577;SDS011;2301;47.354;8.528;2023-03-05T07:58:37;64.15;;;33.83;;
4577;SDS011;2301;47.354;8.528;2023-03-05T08:01:09;64.18;;;34.05;;
4577;SDS011;2301;47.354;8.528;2023-03-05T08:03:38;67.93;;;35.83;;
4577;SDS011;2301;47.354;8.528;2023-03-05T08:06:07;64.40;;;35.58;;
4577;SDS011;2301;47.354;8.528;2023-03-05T08:08:35;65.18;;;34.92;;
4577;SDS011;2301;47.354;8.528;2023-03-05T08:11:03;64.72;;;34.58;;
4577;SDS011;2301;47.354;8.528;2023-03-05T08:13:30;75.15;;;35.75;;
4577;SDS011;2301;47.354;8.528;2023-03-05T08:15:58;68.72;;;35.10;;
4577;SDS011;2301;47.354;8.528;2023-03-05T08:18:29;70.72;;;35.08;;
4577;SDS011;2301;47.354;8.528;2023-03-05T08:20:55;66.25;;;34.13;;
4577;SDS011;2301;47.354;8.528;2023-03-05T08:23:24;68.32;;;36.28;;
4577;SDS011;2301;47.354;8.528;2023-03-05T08:25:51;66.55;;;35.92;;
4577;SDS011;2301;47.354;8.528;2023-03-05T08:28:18;71.75;;;34.63;;
4577;SDS011;2301;47.354;8.528;2023-03-05T08:30:46;71.22;;;34.97;;
4577;SDS011;2301;47.354;8.528;2023-03-05T08:33:13;69.90;;;35.50;;
4577;SDS011;2301;47.354;8.528;2023-03-05T08:35:41;72.60;;;35.63;;
4577;SDS011;2301;47.354;8.528;2023-03-05T08:38:08;69.03;;;34.20;;
4577;SDS011;2301;47.354;8.528;2023-03-05T08:40:36;73.40;;;34.63;;
4577;SDS011;2301;47.354;8.528;2023-03-05T08:43:03;67.05;;;34.42;;
4577;SDS011;2301;47.354;8.528;2023-03-05T08:45:31;69.63;;;37.22;;
4577;SDS011;2301;47.354;8.528;2023-03-05T08:47:58;67.63;;;34.67;;
4577;SDS011;2301;47.354;8.528;2023-03-05T08:50:25;68.53;;;35.25;;
4577;SDS011;2301;47.354;8.528;2023-03-05T08:52:51;67.80;;;35.45;;
4577;SDS011;2301;47.354;8.528;2023-03-05T08:55:20;68.60;;;36.03;;
4577;SDS011;2301;47.354;8.528;2023-03-05T08:57:49;67.80;;;36.10;;
4577;SDS011;2301;47.354;8.528;2023-03-05T09:00:16;70.80;;;36.05;;
4577;SDS011;2301;47.354;8.528;2023-03-05T09:02:44;57.67;;;31.63;;
4577;SDS011;2301;47.354;8.528;2023-03-05T09:05:11;75.22;;;38.42;;
4577;SDS011;2301;47.354;8.528;2023-03-05T09:07:38;62.17;;;32.75;;
4577;SDS011;2301;47.354;8.528;2023-03-05T09:10:05;77.95;;;37.33;;
4577;SDS011;2301;47.354;8.528;2023-03-05T09:12:35;72.45;;;36.47;;
4577;SDS011;2301;47.354;8.528;2023-03-05T09:15:04;68.03;;;35.75;;
4577;SDS011;2301;47.354;8.528;2023-03-05T09:17:33;67.05;;;37.30;;
4577;SDS011;2301;47.354;8.528;2023-03-05T09:20:02;74.55;;;37.63;;
4577;SDS011;2301;47.354;8.528;2023-03-05T09:22:32;69.90;;;36.15;;
4577;SDS011;2301;47.354;8.528;2023-03-05T09:24:59;68.10;;;35.03;;
4577;SDS011;2301;47.354;8.528;2023-03-05T09:27:26;74.28;;;38.08;;
4577;SDS011;2301;47.354;8.528;2023-03-05T09:29:53;70.38;;;37.85;;
4577;SDS011;2301;47.354;8.528;2023-03-05T09:32:21;67.63;;;38.05;;
4577;SDS011;2301;47.354;8.528;2023-03-05T09:34:48;75.28;;;38.67;;
4577;SDS011;2301;47.354;8.528;2023-03-05T09:37:15;69.20;;;36.80;;
4577;SDS011;2301;47.354;8.528;2023-03-05T09:39:42;69.53;;;38.50;;
4577;SDS011;2301;47.354;8.528;2023-03-05T09:42:17;73.80;;;38.53;;
4577;SDS011;2301;47.354;8.528;2023-03-05T09:44:56;65.53;;;36.58;;
4577;SDS011;2301;47.354;8.528;2023-03-05T09:47:42;71.40;;;37.00;;
4577;SDS011;2301;47.354;8.528;2023-03-05T09:50:14;63.17;;;36.25;;
4577;SDS011;2301;47.354;8.528;2023-03-05T09:52:56;78.80;;;41.08;;
4577;SDS011;2301;47.354;8.528;2023-03-05T09:55:28;76.72;;;38.70;;
4577;SDS011;2301;47.354;8.528;2023-03-05T09:58:02;69.88;;;37.55;;
4577;SDS011;2301;47.354;8.528;2023-03-05T10:00:32;74.97;;;40.22;;
4577;SDS011;2301;47.354;8.528;2023-03-05T10:03:04;77.35;;;38.85;;
4577;SDS011;2301;47.354;8.528;2023-03-05T10:05:42;71.72;;;38.50;;
4577;SDS011;2301;47.354;8.528;2023-03-05T10:08:16;75.25;;;38.95;;
4577;SDS011;2301;47.354;8.528;2023-03-05T10:10:48;73.53;;;38.22;;
4577;SDS011;2301;47.354;8.528;2023-03-05T10:13:19;73.38;;;37.50;;
4577;SDS011;2301;47.354;8.528;2023-03-05T10:15:52;71.63;;;38.55;;
4577;SDS011;2301;47.354;8.528;2023-03-05T10:18:28;74.88;;;39.28;;
4577;SDS011;2301;47.354;8.528;2023-03-05T10:21:00;65.03;;;35.75;;
4577;SDS011;2301;47.354;8.528;2023-03-05T10:23:48;68.00;;;36.58;;
4577;SDS011;2301;47.354;8.528;2023-03-05T10:26:26;77.30;;;38.22;;
4577;SDS011;2301;47.354;8.528;2023-03-05T10:29:10;76.88;;;39.58;;
4577;SDS011;2301;47.354;8.528;2023-03-05T10:31:59;70.97;;;37.30;;
4577;SDS011;2301;47.354;8.528;2023-03-05T10:34:42;71.97;;;36.97;;
4577;SDS011;2301;47.354;8.528;2023-03-05T10:40:28;66.93;;;35.22;;
4577;SDS011;2301;47.354;8.528;2023-03-05T10:43:04;66.78;;;36.30;;
4577;SDS011;2301;47.354;8.528;2023-03-05T10:45:40;67.90;;;35.10;;
4577;SDS011;2301;47.354;8.528;2023-03-05T10:48:11;70.97;;;36.17;;
4577;SDS011;2301;47.354;8.528;2023-03-05T10:50:46;70.50;;;38.42;;
4577;SDS011;2301;47.354;8.528;2023-03-05T10:53:17;78.10;;;39.10;;
4577;SDS011;2301;47.354;8.528;2023-03-05T10:55:49;63.08;;;34.38;;
4577;SDS011;2301;47.354;8.528;2023-03-05T10:58:20;64.13;;;34.38;;
4577;SDS011;2301;47.354;8.528;2023-03-05T11:00:58;65.80;;;35.95;;
4577;SDS011;2301;47.354;8.528;2023-03-05T11:03:44;66.60;;;36.53;;
4577;SDS011;2301;47.354;8.528;2023-03-05T11:06:15;63.17;;;34.13;;
4577;SDS011;2301;47.354;8.528;2023-03-05T11:08:53;68.93;;;36.05;;
4577;SDS011;2301;47.354;8.528;2023-03-05T11:11:20;67.10;;;35.78;;
4577;SDS011;2301;47.354;8.528;2023-03-05T11:13:52;68.10;;;36.60;;
4577;SDS011;2301;47.354;8.528;2023-03-05T11:16:22;65.85;;;34.90;;
4577;SDS011;2301;47.354;8.528;2023-03-05T11:18:52;71.20;;;36.25;;
4577;SDS011;2301;47.354;8.528;2023-03-05T11:21:43;69.93;;;36.42;;
4577;SDS011;2301;47.354;8.528;2023-03-05T11:24:11;62.15;;;34.33;;
4577;SDS011;2301;47.354;8.528;2023-03-05T11:26:47;63.65;;;35.83;;
4577;SDS011;2301;47.354;8.528;2023-03-05T11:29:16;63.92;;;36.10;;
4577;SDS011;2301;47.354;8.528;2023-03-05T11:31:45;66.90;;;36.13;;
4577;SDS011;2301;47.354;8.528;2023-03-05T11:34:23;71.93;;;35.92;;
4577;SDS011;2301;47.354;8.528;2023-03-05T11:37:01;72.38;;;35.58;;
4577;SDS011;2301;47.354;8.528;2023-03-05T11:39:30;65.93;;;35.33;;
4577;SDS011;2301;47.354;8.528;2023-03-05T11:42:01;68.90;;;36.00;;
4577;SDS011;2301;47.354;8.528;2023-03-05T11:44:32;74.30;;;34.88;;
4577;SDS011;2301;47.354;8.528;2023-03-05T11:47:09;63.42;;;34.08;;
4577;SDS011;2301;47.354;8.528;2023-03-05T11:49:45;61.70;;;32.75;;
4577;SDS011;2301;47.354;8.528;2023-03-05T11:52:17;57.80;;;31.75;;
4577;SDS011;2301;47.354;8.528;2023-03-05T11:54:51;63.70;;;34.15;;
4577;SDS011;2301;47.354;8.528;2023-03-05T11:57:24;69.20;;;35.60;;
4577;SDS011;2301;47.354;8.528;2023-03-05T11:59:53;60.35;;;33.95;;
4577;SDS011;2301;47.354;8.528;2023-03-05T12:02:22;61.15;;;33.90;;
4577;SDS011;2301;47.354;8.528;2023-03-05T12:04:51;60.90;;;33.03;;
4577;SDS011;2301;47.354;8.528;2023-03-05T12:07:21;59.30;;;33.28;;
4577;SDS011;2301;47.354;8.528;2023-03-05T12:09:55;67.30;;;35.13;;
4577;SDS011;2301;47.354;8.528;2023-03-05T12:12:26;61.03;;;33.50;;
4577;SDS011;2301;47.354;8.528;2023-03-05T12:15:04;58.65;;;32.25;;
4577;SDS011;2301;47.354;8.528;2023-03-05T12:17:49;53.50;;;30.95;;
4577;SDS011;2301;47.354;8.528;2023-03-05T12:20:26;59.22;;;30.80;;
4577;SDS011;2301;47.354;8.528;2023-03-05T12:23:04;56.35;;;29.27;;
4577;SDS011;2301;47.354;8.528;2023-03-05T12:25:32;63.63;;;32.50;;
4577;SDS011;2301;47.354;8.528;2023-03-05T12:28:01;67.00;;;33.35;;
4577;SDS011;2301;47.354;8.528;2023-03-05T12:33:28;57.17;;;32.45;;
4577;SDS011;2301;47.354;8.528;2023-03-05T12:39:01;60.08;;;32.80;;
4577;SDS011;2301;47.354;8.528;2023-03-05T12:45:29;63.75;;;33.85;;
4577;SDS011;2301;47.354;8.528;2023-03-05T12:51:11;62.90;;;33.63;;
4577;SDS011;2301;47.354;8.528;2023-03-05T12:53:39;58.08;;;33.13;;
4577;SDS011;2301;47.354;8.528;2023-03-05T12:56:14;62.90;;;31.02;;
4577;SDS011;2301;47.354;8.528;2023-03-05T12:58:46;61.72;;;32.10;;
4577;SDS011;2301;47.354;8.528;2023-03-05T13:01:22;58.53;;;31.55;;
4577;SDS011;2301;47.354;8.528;2023-03-05T13:04:10;60.17;;;33.17;;
4577;SDS011;2301;47.354;8.528;2023-03-05T13:06:41;61.10;;;32.28;;
4577;SDS011;2301;47.354;8.528;2023-03-05T13:09:15;61.30;;;31.67;;
4577;SDS011;2301;47.354;8.528;2023-03-05T13:11:45;51.85;;;29.75;;
4577;SDS011;2301;47.354;8.528;2023-03-05T13:14:24;54.78;;;31.58;;
4577;SDS011;2301;47.354;8.528;2023-03-05T13:16:55;66.18;;;33.15;;
4577;SDS011;2301;47.354;8.528;2023-03-05T13:19:22;63.17;;;30.63;;
4577;SDS011;2301;47.354;8.528;2023-03-05T13:21:56;63.08;;;32.15;;
4577;SDS011;2301;47.354;8.528;2023-03-05T13:24:24;58.15;;;30.70;;
4577;SDS011;2301;47.354;8.528;2023-03-05T13:26:52;56.65;;;30.45;;
4577;SDS011;2301;47.354;8.528;2023-03-05T13:29:20;58.50;;;30.88;;
4577;SDS011;2301;47.354;8.528;2023-03-05T13:31:50;64.63;;;30.55;;
4577;SDS011;2301;47.354;8.528;2023-03-05T13:34:21;53.47;;;30.98;;
4577;SDS011;2301;47.354;8.528;2023-03-05T13:36:52;54.55;;;30.60;;
4577;SDS011;2301;47.354;8.528;2023-03-05T13:39:24;60.45;;;32.20;;
4577;SDS011;2301;47.354;8.528;2023-03-05T13:41:58;62.25;;;33.45;;
4577;SDS011;2301;47.354;8.528;2023-03-05T13:44:27;62.28;;;34.42;;
4577;SDS011;2301;47.354;8.528;2023-03-05T13:47:05;62.72;;;34.60;;
4577;SDS011;2301;47.354;8.528;2023-03-05T13:49:33;55.33;;;31.90;;
4577;SDS011;2301;47.354;8.528;2023-03-05T13:52:00;59.13;;;31.60;;
4577;SDS011;2301;47.354;8.528;2023-03-05T13:54:27;57.75;;;32.25;;
4577;SDS011;2301;47.354;8.528;2023-03-05T13:56:56;60.35;;;32.85;;
4577;SDS011;2301;47.354;8.528;2023-03-05T13:59:26;56.17;;;31.05;;
4577;SDS011;2301;47.354;8.528;2023-03-05T14:01:57;55.55;;;31.48;;
4577;SDS011;2301;47.354;8.528;2023-03-05T14:04:26;60.22;;;32.55;;
4577;SDS011;2301;47.354;8.528;2023-03-05T14:06:55;59.80;;;30.00;;
4577;SDS011;2301;47.354;8.528;2023-03-05T14:09:25;60.22;;;32.30;;
4577;SDS011;2301;47.354;8.528;2023-03-05T14:11:54;53.67;;;30.45;;
4577;SDS011;2301;47.354;8.528;2023-03-05T14:14:25;56.25;;;31.63;;
4577;SDS011;2301;47.354;8.528;2023-03-05T14:16:53;58.05;;;31.75;;
4577;SDS011;2301;47.354;8.528;2023-03-05T14:19:31;62.33;;;33.30;;
4577;SDS011;2301;47.354;8.528;2023-03-05T14:22:02;60.75;;;30.45;;
4577;SDS011;2301;47.354;8.528;2023-03-05T14:24:30;62.47;;;32.38;;
4577;SDS011;2301;47.354;8.528;2023-03-05T14:26:58;59.05;;;32.60;;
4577;SDS011;2301;47.354;8.528;2023-03-05T14:29:28;56.97;;;30.80;;
4577;SDS011;2301;47.354;8.528;2023-03-05T14:31:55;52.17;;;30.13;;
4577;SDS011;2301;47.354;8.528;2023-03-05T14:34:25;56.70;;;29.63;;
4577;SDS011;2301;47.354;8.528;2023-03-05T14:36:55;59.70;;;29.88;;
4577;SDS011;2301;47.354;8.528;2023-03-05T14:39:31;57.53;;;30.00;;
4577;SDS011;2301;47.354;8.528;2023-03-05T14:42:13;55.30;;;29.90;;
4577;SDS011;2301;47.354;8.528;2023-03-05T14:44:52;52.75;;;28.15;;
4577;SDS011;2301;47.354;8.528;2023-03-05T14:47:19;52.90;;;28.88;;
4577;SDS011;2301;47.354;8.528;2023-03-05T14:49:46;49.58;;;28.20;;
4577;SDS011;2301;47.354;8.528;2023-03-05T14:52:13;55.25;;;29.75;;
4577;SDS011;2301;47.354;8.528;2023-03-05T14:54:42;47.30;;;26.70;;
4577;SDS011;2301;47.354;8.528;2023-03-05T14:57:11;53.30;;;27.75;;
4577;SDS011;2301;47.354;8.528;2023-03-05T14:59:41;51.70;;;26.52;;
4577;SDS011;2301;47.354;8.528;2023-03-05T15:02:12;49.42;;;28.23;;
4577;SDS011;2301;47.354;8.528;2023-03-05T15:04:40;54.22;;;28.83;;
4577;SDS011;2301;47.354;8.528;2023-03-05T15:07:09;57.78;;;29.38;;
4577;SDS011;2301;47.354;8.528;2023-03-05T15:09:40;57.33;;;28.73;;
4577;SDS011;2301;47.354;8.528;2023-03-05T15:12:07;47.75;;;27.80;;
4577;SDS011;2301;47.354;8.528;2023-03-05T15:14:36;52.45;;;28.50;;
4577;SDS011;2301;47.354;8.528;2023-03-05T15:17:04;54.28;;;28.65;;
4577;SDS011;2301;47.354;8.528;2023-03-05T15:19:33;54.25;;;28.40;;
4577;SDS011;2301;47.354;8.528;2023-03-05T15:21:59;50.42;;;24.77;;